aviador You're here:

KBTL Decoded Metar

BATTLE CREEK in MI, USA
Report Time2017-09-26 11:53:00
UTC Time2017-09-26 12:45:06
Flight Rules vfr VFR
Wind150° at 03 kt
W.Decomp.*RWY 13: 2.7 kt HW 1.2 kt RCW
RWY 23: 0.7 kt HW 2.9 kt LCW
W.Rank150° ranks 18
Current wind is below 150° avg. (6.4)
Visibility9999 m
Phenomena:N/A
Clouds:N/A
Expected CloudBase > 800 ft AGL from Temp-Dew spread
CeilingNone
Temp18°C (ISA +5)
Dew Point16°C (88% RH)
QNH1016 hPa
Density Alt1,670 ft
Elevation951 ft
Report Wrong Elevation
Raw Report
KBTL 261153Z 15003KT 8SM CLR 18/16 A3000 RMK AO2 SLP153 T01780161
10200 20167 53005=

Extra information for KBTL:More info

Metar Taf Metar & Taf Last 4 Metars F.Rules Stats Wind Profile Meteogram Temp Stats Airport Information Weather charts Add Link Nearby VenuesMetar ALERT Operation Metar Decoded Social comments

AIRNAV info for KBTL